Time;durP1;ratioP1;P1;durP2;ratioP2;P2;SDS_P1;SDS_P2;PMS_P1;PMS_P2;Temp;Humidity;BMP_temperature;BMP_pressure;BME280_temperature;BME280_humidity;BME280_pressure;Samples;Min_cycle;Max_cycle;Signal;HPM_P1;HPM_P2
2022/04/11 00:00:36;;;;;;;;;;;;;;;4.48;65.01;101950.22;5082989;28;19935;-71
2022/04/11 00:03:01;;;;;;;;;;;;;;;4.46;65.45;101951.78;5087337;28;19963;-70
2022/04/11 00:05:26;;;;;;;;;;;;;;;4.46;64.71;101946.69;5087737;28;19966;-71
2022/04/11 00:07:52;;;;;;;;;;;;;;;4.43;65.36;101941.34;5083320;28;19924;-72
2022/04/11 00:10:17;;;;;;;;;;;;;;;4.40;65.45;101934.41;5085938;28;19924;-71
2022/04/11 00:12:42;;;;;;;;;;;;;;;4.40;65.30;101947.13;5082594;28;19923;-71
2022/04/11 00:15:08;;;;;;;;;;;;;;;4.37;64.11;101941.84;5086059;28;19975;-69
2022/04/11 00:17:34;;;;;;;;;;;;;;;4.38;63.00;101937.63;5086745;28;19952;-69
2022/04/11 00:19:59;;;;;;;;;;;;;;;4.34;65.54;101933.97;5084665;28;19969;-69
2022/04/11 00:22:24;;;;;;;;;;;;;;;4.34;65.42;101933.97;5088070;28;19943;-70
2022/04/11 00:24:50;;;;;;;;;;;;;;;4.33;65.44;101938.97;5084443;28;19932;-69
2022/04/11 00:27:15;;;;;;;;;;;;;;;4.33;62.88;101928.78;5085547;28;19930;-68
2022/04/11 00:29:40;;;;;;;;;;;;;;;4.29;65.45;101925.13;5064909;28;20354;-70
2022/04/11 00:32:06;;;;;;;;;;;;;;;4.30;64.72;101920.13;5087243;28;20010;-69
2022/04/11 00:34:31;;;;;;;;;;;;;;;4.28;65.33;101924.25;5084689;28;19920;-69
2022/04/11 00:36:56;;;;;;;;;;;;;;;4.27;65.59;101921.59;5088167;28;20417;-70
2022/04/11 00:39:21;;;;;;;;;;;;;;;4.23;65.09;101914.50;5087884;28;20002;-70
2022/04/11 00:41:47;;;;;;;;;;;;;;;4.21;66.87;101913.53;5086500;28;19920;-69
2022/04/11 00:44:12;;;;;;;;;;;;;;;4.22;66.25;101908.53;5083585;28;19935;-69
2022/04/11 00:46:37;;;;;;;;;;;;;;;4.22;66.50;101911.09;5085580;28;19968;-69
2022/04/11 00:49:03;;;;;;;;;;;;;;;4.24;67.11;101909.53;5084204;28;19923;-69
2022/04/11 00:51:28;;;;;;;;;;;;;;;4.24;66.59;101901.88;5086787;28;19920;-70
2022/04/11 00:53:56;;;;;;;;;;;;;;;4.23;65.21;101896.69;5086233;28;19962;-70
2022/04/11 00:56:24;;;;;;;;;;;;;;;4.20;65.05;101897.38;5085126;28;20359;-69
2022/04/11 00:58:50;;;;;;;;;;;;;;;4.19;63.37;101897.28;5081540;28;19920;-71
2022/04/11 01:01:16;;;;;;;;;;;;;;;4.19;62.99;101894.72;5082169;28;20097;-70
2022/04/11 01:03:41;;;;;;;;;;;;;;;4.17;66.21;101898.81;5085275;28;19924;-70
2022/04/11 01:06:09;;;;;;;;;;;;;;;4.14;66.46;101886.75;5083557;28;19961;-69
2022/04/11 01:08:35;;;;;;;;;;;;;;;4.15;66.03;101893.63;5085664;28;19994;-69
2022/04/11 01:11:02;;;;;;;;;;;;;;;4.13;67.92;101890.09;5082749;28;20404;-70
2022/04/11 01:13:28;;;;;;;;;;;;;;;4.14;66.57;101890.97;5086358;28;19927;-69
2022/04/11 01:15:57;;;;;;;;;;;;;;;4.11;67.64;101889.06;5083755;28;20060;-70
2022/04/11 01:18:23;;;;;;;;;;;;;;;4.10;67.08;101888.97;5085795;28;19931;-69
2022/04/11 01:20:48;;;;;;;;;;;;;;;4.06;67.90;101887.84;5085553;28;19920;-70
2022/04/11 01:23:14;;;;;;;;;;;;;;;4.03;67.32;101892.75;5085016;28;20368;-71
2022/04/11 01:25:39;;;;;;;;;;;;;;;4.00;67.19;101885.81;5066427;28;19920;-70
2022/04/11 01:28:05;;;;;;;;;;;;;;;3.99;68.10;101885.66;5084955;28;19925;-69
2022/04/11 01:30:30;;;;;;;;;;;;;;;3.99;68.53;101885.66;5082855;28;20360;-69
2022/04/11 01:32:55;;;;;;;;;;;;;;;3.94;67.91;101887.00;5083517;28;19923;-72
2022/04/11 01:35:22;;;;;;;;;;;;;;;3.93;69.11;101880.16;5085315;28;19928;-71
2022/04/11 01:37:47;;;;;;;;;;;;;;;3.93;68.41;101885.22;5088278;28;19920;-71
2022/04/11 01:40:12;;;;;;;;;;;;;;;3.91;68.13;101890.22;5085110;28;20307;-71
2022/04/11 01:42:38;;;;;;;;;;;;;;;3.88;68.64;101886.56;5086968;28;20007;-71
2022/04/11 01:45:09;;;;;;;;;;;;;;;3.85;67.83;101887.25;5082714;28;20303;-71
2022/04/11 01:47:34;;;;;;;;;;;;;;;3.80;68.38;101883.47;5080466;28;20460;-71
2022/04/11 01:49:59;;;;;;;;;;;;;;;3.78;68.96;101894.34;5067368;28;20042;-71
2022/04/11 01:52:24;;;;;;;;;;;;;;;3.78;68.28;101886.69;5079886;28;20011;-72
2022/04/11 01:54:50;;;;;;;;;;;;;;;3.77;67.80;101883.28;5084072;28;19965;-71
2022/04/11 01:57:15;;;;;;;;;;;;;;;3.74;68.56;101883.94;5086181;28;20607;-71
2022/04/11 01:59:40;;;;;;;;;;;;;;;3.74;69.99;101873.75;5083155;28;19932;-72
2022/04/11 02:02:05;;;;;;;;;;;;;;;3.74;70.48;101876.28;5085354;28;20007;-71
2022/04/11 02:04:32;;;;;;;;;;;;;;;3.72;70.50;101879.50;5083227;28;19928;-71
2022/04/11 02:06:57;;;;;;;;;;;;;;;3.73;69.92;101873.66;5081489;28;19932;-72
2022/04/11 02:09:22;;;;;;;;;;;;;;;3.69;70.46;101877.63;5079142;28;19920;-71
2022/04/11 02:11:47;;;;;;;;;;;;;;;3.67;70.51;101875.75;5084596;28;20261;-71
2022/04/11 02:14:13;;;;;;;;;;;;;;;3.66;70.84;101879.97;5083736;28;20338;-71
2022/04/11 02:16:38;;;;;;;;;;;;;;;3.64;70.11;101881.53;5086256;28;20014;-71
2022/04/11 02:19:04;;;;;;;;;;;;;;;3.62;71.21;101880.50;5084660;28;19928;-71
2022/04/11 02:21:29;;;;;;;;;;;;;;;3.61;70.49;101876.19;5083199;28;21599;-72
2022/04/11 02:23:54;;;;;;;;;;;;;;;3.57;71.21;101879.28;5084132;28;20018;-72
2022/04/11 02:26:20;;;;;;;;;;;;;;;3.53;71.63;101874.78;5084101;28;19920;-71
2022/04/11 02:28:45;;;;;;;;;;;;;;;3.52;70.61;101878.09;5083558;28;19927;-72
2022/04/11 02:31:11;;;;;;;;;;;;;;;3.47;71.00;101882.84;5085100;28;19989;-73
2022/04/11 02:33:36;;;;;;;;;;;;;;;3.42;71.45;101889.25;5083182;28;19935;-72
2022/04/11 02:36:01;;;;;;;;;;;;;;;3.39;71.40;101891.53;5062611;28;20261;-72
2022/04/11 02:38:28;;;;;;;;;;;;;;;3.38;70.96;101886.34;5083719;28;19924;-72
2022/04/11 02:40:53;;;;;;;;;;;;;;;3.35;73.03;101881.94;5084677;28;20423;-71
2022/04/11 02:43:18;;;;;;;;;;;;;;;3.35;71.97;101884.47;5086213;28;19985;-72
2022/04/11 02:45:43;;;;;;;;;;;;;;;3.33;71.49;101877.50;5083556;28;19928;-72
2022/04/11 02:48:09;;;;;;;;;;;;;;;3.27;72.51;101877.03;5064799;28;19920;-72
2022/04/11 02:50:34;;;;;;;;;;;;;;;3.21;73.65;101868.19;5082412;28;19927;-72
2022/04/11 02:52:59;;;;;;;;;;;;;;;3.23;72.66;101879.38;5067593;28;19920;-72
2022/04/11 02:55:25;;;;;;;;;;;;;;;3.21;73.52;101878.38;5083166;28;19920;-71
2022/04/11 02:57:50;;;;;;;;;;;;;;;3.18;72.47;101880.69;5081661;28;19941;-72
2022/04/11 03:00:15;;;;;;;;;;;;;;;3.13;73.00;101873.50;5084073;28;19920;-72
2022/04/11 03:02:41;;;;;;;;;;;;;;;3.08;74.62;101875.69;5084193;28;19931;-72
2022/04/11 03:05:06;;;;;;;;;;;;;;;3.07;74.24;101873.06;5081984;28;20271;-72
2022/04/11 03:07:31;;;;;;;;;;;;;;;3.05;74.17;101870.41;5086741;28;20372;-72
2022/04/11 03:09:57;;;;;;;;;;;;;;;2.99;74.81;101867.41;5067777;28;19942;-72
2022/04/11 03:12:22;;;;;;;;;;;;;;;2.95;74.22;101863.75;5083740;28;20043;-71
2022/04/11 03:14:48;;;;;;;;;;;;;;;2.91;74.54;101864.31;5083584;28;19972;-71
2022/04/11 03:17:13;;;;;;;;;;;;;;;2.86;76.29;101868.16;5084414;28;19954;-71
2022/04/11 03:19:38;;;;;;;;;;;;;;;2.86;74.89;101865.59;5086381;28;19938;-71
2022/04/11 03:22:04;;;;;;;;;;;;;;;2.85;74.63;101870.56;5088885;28;19928;-71
2022/04/11 03:24:29;;;;;;;;;;;;;;;2.78;75.21;101869.22;5086458;28;19999;-72
2022/04/11 03:26:54;;;;;;;;;;;;;;;2.72;76.22;101862.78;5089957;28;19946;-71
2022/04/11 03:29:20;;;;;;;;;;;;;;;2.67;76.37;101865.88;5088786;28;19966;-72
2022/04/11 03:31:46;;;;;;;;;;;;;;;2.65;75.17;101857.25;5088535;28;20372;-71
2022/04/11 03:34:11;;;;;;;;;;;;;;;2.59;75.11;101868.59;5070450;28;19981;-71
2022/04/11 03:36:36;;;;;;;;;;;;;;;2.49;75.41;101864.50;5088032;28;20342;-71
2022/04/11 03:39:02;;;;;;;;;;;;;;;2.38;74.70;101870.41;5086229;28;19924;-71
2022/04/11 03:41:27;;;;;;;;;;;;;;;2.29;76.33;101869.66;5091408;28;19955;-71
2022/04/11 03:43:52;;;;;;;;;;;;;;;2.23;76.45;101871.75;5069432;28;20384;-71
2022/04/11 03:46:18;;;;;;;;;;;;;;;2.20;77.03;101869.84;5089557;28;20019;-72
2022/04/11 03:48:43;;;;;;;;;;;;;;;2.21;77.72;101865.66;5084018;28;20009;-71
2022/04/11 03:51:08;;;;;;;;;;;;;;;2.22;77.87;101865.78;5086514;28;20347;-73
2022/04/11 03:53:34;;;;;;;;;;;;;;;2.26;78.01;101864.38;5087756;28;19920;-71
2022/04/11 03:55:59;;;;;;;;;;;;;;;2.24;77.56;101863.34;5087557;28;20194;-72
2022/04/11 03:58:24;;;;;;;;;;;;;;;2.22;77.83;101869.97;5085660;28;20384;-71
2022/04/11 04:00:50;;;;;;;;;;;;;;;2.18;77.21;101871.38;5086872;28;20446;-70
2022/04/11 04:03:15;;;;;;;;;;;;;;;2.17;78.73;101868.72;5085362;28;19920;-72
2022/04/11 04:05:44;;;;;;;;;;;;;;;2.15;77.73;101863.53;5083493;28;20365;-71
2022/04/11 04:08:10;;;;;;;;;;;;;;;2.11;76.68;101864.94;5083353;28;19930;-71
2022/04/11 04:10:35;;;;;;;;;;;;;;;2.09;78.09;101866.47;5087640;28;20019;-71
2022/04/11 04:13:00;;;;;;;;;;;;;;;2.10;78.71;101869.91;5083595;28;20010;-71
2022/04/11 04:15:25;;;;;;;;;;;;;;;2.08;79.36;101867.25;5082983;28;20038;-71
2022/04/11 04:17:51;;;;;;;;;;;;;;;2.09;78.76;101861.41;5088154;28;19928;-71
2022/04/11 04:20:17;;;;;;;;;;;;;;;2.08;77.60;101863.84;5085103;28;19916;-71
2022/04/11 04:22:42;;;;;;;;;;;;;;;2.04;78.35;101857.63;5087336;28;19961;-71
2022/04/11 04:25:07;;;;;;;;;;;;;;;2.02;78.91;101856.63;5083585;28;19978;-72
2022/04/11 04:27:34;;;;;;;;;;;;;;;2.01;78.23;101852.31;5086559;28;20300;-71
2022/04/11 04:29:59;;;;;;;;;;;;;;;2.00;79.57;101849.66;5085602;28;20365;-71
2022/04/11 04:32:26;;;;;;;;;;;;;;;1.98;80.12;101853.72;5087278;28;19977;-71
2022/04/11 04:34:51;;;;;;;;;;;;;;;1.93;79.37;101848.28;5085264;28;20439;-71
2022/04/11 04:37:16;;;;;;;;;;;;;;;1.86;80.91;101846.94;5083394;28;19920;-71
2022/04/11 04:39:41;;;;;;;;;;;;;;;1.86;80.18;101851.13;5088802;28;19985;-72
2022/04/11 04:42:07;;;;;;;;;;;;;;;1.83;80.65;101844.16;5085744;28;19920;-70
2022/04/11 04:44:33;;;;;;;;;;;;;;;1.79;80.22;101852.28;5085004;28;19928;-71
2022/04/11 04:46:58;;;;;;;;;;;;;;;1.78;81.05;101849.63;5082641;28;20666;-71
2022/04/11 04:49:23;;;;;;;;;;;;;;;1.78;80.18;101852.16;5083226;28;19926;-71
2022/04/11 04:51:49;;;;;;;;;;;;;;;1.78;80.95;101847.09;5085881;28;19920;-71
2022/04/11 04:54:14;;;;;;;;;;;;;;;1.76;81.49;101848.59;5082815;28;20945;-71
2022/04/11 04:56:39;;;;;;;;;;;;;;;1.78;80.88;101842.03;5083707;28;19924;-71
2022/04/11 04:59:04;;;;;;;;;;;;;;;1.77;80.14;101845.34;5083720;28;19924;-71
2022/04/11 05:01:30;;;;;;;;;;;;;;;1.77;82.24;101842.81;5083558;28;19998;-71
2022/04/11 05:03:56;;;;;;;;;;;;;;;1.78;82.33;101844.56;5079338;28;19920;-71
2022/04/11 05:06:22;;;;;;;;;;;;;;;1.79;82.34;101844.69;5083775;28;20019;-71
2022/04/11 05:08:48;;;;;;;;;;;;;;;1.83;81.45;101845.81;5084343;28;21044;-70
2022/04/11 05:11:13;;;;;;;;;;;;;;;1.82;82.45;101833.88;5082783;28;19916;-70
2022/04/11 05:13:40;;;;;;;;;;;;;;;1.85;81.30;101836.66;5081968;28;19927;-71
2022/04/11 05:16:05;;;;;;;;;;;;;;;1.88;81.70;101830.19;5087097;28;19920;-72
2022/04/11 05:18:30;;;;;;;;;;;;;;;1.94;82.32;101844.09;5083651;28;19931;-71
2022/04/11 05:20:55;;;;;;;;;;;;;;;2.00;80.54;101839.50;5087412;28;20022;-71
2022/04/11 05:23:21;;;;;;;;;;;;;;;2.01;79.96;101836.22;5084791;28;19924;-72
2022/04/11 05:25:46;;;;;;;;;;;;;;;2.04;80.27;101831.38;5082910;28;20287;-70
2022/04/11 05:28:11;;;;;;;;;;;;;;;2.12;80.37;101841.38;5084424;28;19927;-71
2022/04/11 05:30:37;;;;;;;;;;;;;;;2.38;81.19;101830.66;5082992;28;20019;-72
2022/04/11 05:33:02;;;;;;;;;;;;;;;2.86;79.80;101832.59;5067779;28;20014;-71
2022/04/11 05:35:28;;;;;;;;;;;;;;;3.34;78.79;101838.63;5084090;28;19928;-71
2022/04/11 05:37:53;;;;;;;;;;;;;;;3.87;75.73;101836.47;5083064;28;19924;-71
2022/04/11 05:40:18;;;;;;;;;;;;;;;4.44;75.25;101834.53;5083548;28;19985;-71
2022/04/11 05:42:43;;;;;;;;;;;;;;;4.85;72.86;101838.94;5083718;28;19919;-71
2022/04/11 05:45:09;;;;;;;;;;;;;;;5.32;71.70;101834.41;5082024;28;19928;-72
2022/04/11 05:47:34;;;;;;;;;;;;;;;5.80;70.40;101833.22;5084661;28;19920;-71
2022/04/11 05:49:59;;;;;;;;;;;;;;;6.26;68.56;101825.91;5086998;28;20143;-71
2022/04/11 05:52:25;;;;;;;;;;;;;;;6.59;68.19;101828.69;5085934;28;20465;-74
2022/04/11 05:54:50;;;;;;;;;;;;;;;6.97;66.33;101821.59;5084056;28;19920;-72
2022/04/11 05:57:15;;;;;;;;;;;;;;;7.46;62.41;101823.47;5085551;28;19980;-71
2022/04/11 05:59:41;;;;;;;;;;;;;;;7.78;64.86;101826.16;5082989;28;20360;-71
2022/04/11 06:02:09;;;;;;;;;;;;;;;8.31;60.06;101830.72;5101456;27;19924;-71
2022/04/11 06:04:35;;;;;;;;;;;;;;;8.66;61.20;101820.53;5083975;28;19916;-71
2022/04/11 06:07:01;;;;;;;;;;;;;;;9.07;58.64;101825.19;5084159;28;19950;-71
2022/04/11 06:09:27;;;;;;;;;;;;;;;9.50;57.51;101812.75;5084398;28;20334;-73
2022/04/11 06:11:52;;;;;;;;;;;;;;;9.91;53.74;101817.25;5083837;28;19923;-72
2022/04/11 06:14:17;;;;;;;;;;;;;;;9.96;56.39;101825.16;5083883;28;19930;-72
2022/04/11 06:16:42;;;;;;;;;;;;;;;10.14;52.40;101825.13;5064217;28;20322;-72
2022/04/11 06:19:08;;;;;;;;;;;;;;;10.57;49.28;101822.78;5077692;28;20043;-71
2022/04/11 06:21:33;;;;;;;;;;;;;;;10.89;52.03;101815.56;5086802;28;20400;-72
2022/04/11 06:23:58;;;;;;;;;;;;;;;11.28;54.03;101817.19;5083466;28;19928;-72
2022/04/11 06:26:24;;;;;;;;;;;;;;;11.84;45.24;101824.56;5084638;28;19934;-72
2022/04/11 06:28:49;;;;;;;;;;;;;;;11.87;45.94;101820.38;5084613;28;19924;-71
2022/04/11 06:31:14;;;;;;;;;;;;;;;12.23;47.22;101822.56;5084798;28;19981;-71
2022/04/11 06:33:39;;;;;;;;;;;;;;;12.65;47.86;101817.19;5079809;28;19928;-72
2022/04/11 06:36:05;;;;;;;;;;;;;;;12.88;42.51;101819.72;5084739;28;19920;-72
2022/04/11 06:38:31;;;;;;;;;;;;;;;12.99;43.96;101814.06;5085125;28;19994;-72
2022/04/11 06:40:56;;;;;;;;;;;;;;;13.25;44.54;101820.97;5082278;28;20629;-71
2022/04/11 06:43:22;;;;;;;;;;;;;;;13.58;40.93;101815.97;5080938;28;20086;-71
2022/04/11 06:45:47;;;;;;;;;;;;;;;13.46;42.89;101817.31;5080082;28;19935;-72
2022/04/11 06:48:12;;;;;;;;;;;;;;;13.60;43.40;101814.34;5082769;28;20312;-72
2022/04/11 06:50:37;;;;;;;;;;;;;;;14.14;44.62;101818.53;5065120;28;19920;-72
2022/04/11 06:53:03;;;;;;;;;;;;;;;14.69;44.13;101823.53;5084299;28;20040;-72
2022/04/11 06:55:28;;;;;;;;;;;;;;;15.17;44.65;101819.56;5083828;28;20014;-72
2022/04/11 06:57:54;;;;;;;;;;;;;;;15.91;43.05;101825.63;5087221;28;19932;-73
2022/04/11 07:00:19;;;;;;;;;;;;;;;16.27;38.96;101820.31;5089398;28;19950;-74
2022/04/11 07:02:44;;;;;;;;;;;;;;;16.39;36.46;101819.69;5090139;28;19916;-72
2022/04/11 07:05:09;;;;;;;;;;;;;;;16.22;35.70;101818.47;5088906;28;19924;-73
2022/04/11 07:07:38;;;;;;;;;;;;;;;16.12;36.92;101822.59;5087798;28;20304;-73
2022/04/11 07:10:04;;;;;;;;;;;;;;;16.40;36.25;101826.63;5090712;28;19920;-73
2022/04/11 07:12:29;;;;;;;;;;;;;;;16.82;39.27;101821.41;5088634;28;19943;-74
2022/04/11 07:14:56;;;;;;;;;;;;;;;17.21;39.15;101812.50;5090683;28;19931;-73
2022/04/11 07:17:21;;;;;;;;;;;;;;;17.83;38.20;101811.69;5087985;28;19920;-73
2022/04/11 07:19:47;;;;;;;;;;;;;;;18.41;36.38;101804.59;5083914;28;19995;-73
2022/04/11 07:22:12;;;;;;;;;;;;;;;18.72;32.94;101804.09;5093853;28;19955;-73
2022/04/11 07:24:37;;;;;;;;;;;;;;;18.33;33.44;101814.06;5087483;28;19919;-72
2022/04/11 07:27:03;;;;;;;;;;;;;;;17.98;35.17;101808.44;5086238;28;20346;-73
2022/04/11 07:29:29;;;;;;;;;;;;;;;17.91;34.59;101802.28;5086795;28;19962;-73
2022/04/11 07:31:54;;;;;;;;;;;;;;;18.55;33.42;101800.41;5086838;28;20388;-73
2022/04/11 07:34:19;;;;;;;;;;;;;;;18.79;33.86;101793.72;5082244;28;19924;-73
2022/04/11 07:36:44;;;;;;;;;;;;;;;18.86;33.61;101793.78;5066887;28;19927;-72
2022/04/11 07:39:10;;;;;;;;;;;;;;;19.52;31.05;101795.13;5089274;28;20307;-73
2022/04/11 07:41:35;;;;;;;;;;;;;;;19.81;31.97;101789.25;5069080;28;19920;-72
2022/04/11 07:44:00;;;;;;;;;;;;;;;20.44;31.15;101784.22;5085930;28;20020;-73
2022/04/11 07:46:26;;;;;;;;;;;;;;;21.08;29.23;101776.47;5087719;28;19924;-73
2022/04/11 07:48:51;;;;;;;;;;;;;;;21.28;30.57;101782.53;5086878;28;19928;-73
2022/04/11 07:51:17;;;;;;;;;;;;;;;21.72;27.69;101783.34;5085019;28;19924;-72
2022/04/11 07:53:43;;;;;;;;;;;;;;;21.71;29.72;101789.44;5087775;28;19924;-73
2022/04/11 07:56:08;;;;;;;;;;;;;;;21.68;28.46;101780.75;5087115;28;19928;-72
2022/04/11 07:58:34;;;;;;;;;;;;;;;21.75;30.66;101775.47;5090673;28;19939;-72
2022/04/11 08:00:59;;;;;;;;;;;;;;;22.10;29.40;101767.50;5084639;28;19920;-72
2022/04/11 08:03:24;;;;;;;;;;;;;;;22.64;31.07;101770.66;5086178;28;19920;-72
2022/04/11 08:05:50;;;;;;;;;;;;;;;23.36;30.03;101770.94;5084156;28;19920;-72
2022/04/11 08:08:15;;;;;;;;;;;;;;;23.35;26.09;101765.66;5067813;28;19928;-73
2022/04/11 08:10:40;;;;;;;;;;;;;;;23.28;26.28;101764.88;5086612;28;19923;-72
2022/04/11 08:13:06;;;;;;;;;;;;;;;23.75;27.46;101766.13;5082859;28;19923;-74
2022/04/11 08:15:32;;;;;;;;;;;;;;;24.33;24.66;101753.09;5087249;28;20292;-72
2022/04/11 08:17:59;;;;;;;;;;;;;;;24.07;27.62;101758.69;5084475;28;19967;-72
2022/04/11 08:20:25;;;;;;;;;;;;;;;24.15;25.91;101753.34;5086657;28;19920;-72
2022/04/11 08:22:51;;;;;;;;;;;;;;;24.18;23.86;101747.16;5083072;28;19931;-72
2022/04/11 08:25:17;;;;;;;;;;;;;;;23.16;26.04;101744.88;5085835;28;19930;-72
2022/04/11 08:27:42;;;;;;;;;;;;;;;22.89;26.92;101750.38;5085713;28;20244;-73
2022/04/11 08:30:09;;;;;;;;;;;;;;;22.91;26.21;101749.47;5087874;28;19920;-68
2022/04/11 08:32:40;;;;;;;;;;;;;;;22.71;27.33;101748.75;5086529;28;19916;-72
2022/04/11 08:35:06;;;;;;;;;;;;;;;22.36;26.74;101749.88;5079606;28;20061;-71
2022/04/11 08:37:36;;;;;;;;;;;;;;;22.07;27.26;101744.78;5084964;28;19970;-72
2022/04/11 08:40:02;;;;;;;;;;;;;;;21.68;29.42;101753.69;5102063;28;19920;-71
2022/04/11 08:42:27;;;;;;;;;;;;;;;22.04;27.65;101736.94;5087631;28;19926;-72
2022/04/11 08:44:55;;;;;;;;;;;;;;;22.40;27.18;101733.25;5086207;28;20007;-72
2022/04/11 08:47:20;;;;;;;;;;;;;;;22.65;26.98;101738.31;5083651;28;19935;-72
2022/04/11 08:49:45;;;;;;;;;;;;;;;22.52;26.33;101745.41;5083004;28;19928;-72
2022/04/11 08:52:11;;;;;;;;;;;;;;;22.87;25.42;101737.31;5087608;28;20007;-72
2022/04/11 08:54:36;;;;;;;;;;;;;;;23.29;27.87;101733.34;5083064;28;20334;-72
2022/04/11 08:57:02;;;;;;;;;;;;;;;23.98;23.90;101732.56;5084939;28;19988;-72
2022/04/11 08:59:31;;;;;;;;;;;;;;;23.91;23.06;101730.03;5087784;28;20295;-71
2022/04/11 09:01:56;;;;;;;;;;;;;;;23.41;26.33;101729.72;5099419;28;20368;-71
2022/04/11 09:04:22;;;;;;;;;;;;;;;23.92;23.36;101730.03;5083423;28;19959;-71
2022/04/11 09:06:56;;;;;;;;;;;;;;;23.79;24.14;101737.19;5081656;28;19924;-73
2022/04/11 09:09:38;;;;;;;;;;;;;;;24.03;26.12;101741.25;5081979;28;19915;-72
2022/04/11 09:12:03;;;;;;;;;;;;;;;25.04;25.59;101738.78;5083848;28;20003;-73
2022/04/11 09:14:28;;;;;;;;;;;;;;;25.57;24.34;101740.44;5084268;28;20019;-72
2022/04/11 09:16:54;;;;;;;;;;;;;;;26.17;22.57;101732.13;5085047;28;20043;-72
2022/04/11 09:19:20;;;;;;;;;;;;;;;26.50;21.35;101724.34;5084449;28;19933;-73
2022/04/11 09:21:46;;;;;;;;;;;;;;;25.48;22.43;101726.56;5086045;28;20329;-72
2022/04/11 09:24:15;;;;;;;;;;;;;;;25.04;23.30;101728.25;5085657;28;19946;-73
2022/04/11 09:26:41;;;;;;;;;;;;;;;24.88;24.23;101725.06;5084808;28;19916;-72
2022/04/11 09:29:06;;;;;;;;;;;;;;;24.85;23.23;101722.47;5085055;28;20400;-73
2022/04/11 09:31:31;;;;;;;;;;;;;;;25.46;23.08;101713.44;5086245;28;19965;-71
2022/04/11 09:33:57;;;;;;;;;;;;;;;24.97;22.46;101703.84;5065579;28;20318;-71
2022/04/11 09:36:23;;;;;;;;;;;;;;;25.24;21.88;101694.59;5084712;28;19924;-72
2022/04/11 09:39:01;;;;;;;;;;;;;;;25.60;25.37;101698.25;5081530;28;20014;-72
2022/04/11 09:41:30;;;;;;;;;;;;;;;26.48;21.07;101698.94;5086018;28;19928;-72
2022/04/11 09:43:56;;;;;;;;;;;;;;;26.15;21.59;101698.81;5080676;28;19925;-73
2022/04/11 09:46:22;;;;;;;;;;;;;;;25.91;20.83;101692.34;5083875;28;19927;-72
2022/04/11 09:48:50;;;;;;;;;;;;;;;26.25;20.77;101692.41;5083430;28;19916;-73
2022/04/11 09:51:15;;;;;;;;;;;;;;;25.66;19.89;101692.84;5079169;28;20149;-73
2022/04/11 09:53:41;;;;;;;;;;;;;;;24.14;23.12;101687.66;5081115;28;19956;-73
2022/04/11 09:56:08;;;;;;;;;;;;;;;24.04;22.81;101689.56;5082464;28;19960;-71
2022/04/11 09:58:34;;;;;;;;;;;;;;;23.86;21.70;101676.72;5085700;28;20337;-72
2022/04/11 10:01:01;;;;;;;;;;;;;;;24.44;22.61;101678.47;5083867;28;19920;-72
2022/04/11 10:03:27;;;;;;;;;;;;;;;25.47;22.19;101665.13;5081907;28;19918;-71
2022/04/11 10:05:53;;;;;;;;;;;;;;;26.31;21.02;101665.88;5083450;28;19920;-71
2022/04/11 10:08:19;;;;;;;;;;;;;;;26.45;20.17;101668.19;5085115;28;19956;-72
2022/04/11 10:10:44;;;;;;;;;;;;;;;25.59;19.65;101667.50;5082565;28;19974;-74
2022/04/11 10:13:13;;;;;;;;;;;;;;;24.81;21.10;101679.59;5085202;28;19916;-73
2022/04/11 10:15:39;;;;;;;;;;;;;;;25.06;23.01;101672.13;5080310;28;19931;-74
2022/04/11 10:18:05;;;;;;;;;;;;;;;25.93;18.92;101664.16;5081864;28;19921;-73
2022/04/11 10:20:34;;;;;;;;;;;;;;;25.72;20.94;101662.84;5080186;28;19924;-72
2022/04/11 10:23:07;;;;;;;;;;;;;;;26.03;20.78;101660.44;5080880;28;19920;-72
2022/04/11 10:25:37;;;;;;;;;;;;;;;25.41;19.92;101660.00;5083226;28;19927;-72
2022/04/11 10:28:17;;;;;;;;;;;;;;;24.51;20.29;101664.31;5084168;28;19973;-73
2022/04/11 10:30:44;;;;;;;;;;;;;;;23.17;22.49;101660.03;5088039;28;19924;-72
2022/04/11 10:33:09;;;;;;;;;;;;;;;23.36;23.27;101654.56;5086722;28;19951;-71
2022/04/11 10:35:44;;;;;;;;;;;;;;;23.08;22.83;101652.28;5083675;28;20430;-71
2022/04/11 10:38:15;;;;;;;;;;;;;;;22.56;23.14;101655.38;5090914;28;19980;-72
2022/04/11 10:40:47;;;;;;;;;;;;;;;23.02;21.89;101660.22;5060245;28;19920;-72
2022/04/11 10:43:13;;;;;;;;;;;;;;;23.07;21.65;101649.66;5082887;28;19924;-72
2022/04/11 10:45:44;;;;;;;;;;;;;;;23.21;21.04;101655.63;5081846;28;19924;-72
2022/04/11 10:48:13;;;;;;;;;;;;;;;22.38;22.62;101659.00;5086646;28;19965;-72
2022/04/11 10:50:42;;;;;;;;;;;;;;;22.19;22.70;101649.56;5085096;28;20027;-73
2022/04/11 10:53:23;;;;;;;;;;;;;;;22.80;22.37;101640.28;5085519;28;19978;-71
2022/04/11 10:56:02;;;;;;;;;;;;;;;23.74;23.58;101636.59;5081718;28;19923;-71
2022/04/11 10:58:41;;;;;;;;;;;;;;;24.04;21.48;101630.00;5082807;28;19920;-71
2022/04/11 11:01:07;;;;;;;;;;;;;;;23.70;23.82;101620.91;5084781;28;19916;-71
2022/04/11 11:03:33;;;;;;;;;;;;;;;24.05;21.04;101621.25;5085407;28;19947;-72
2022/04/11 11:06:14;;;;;;;;;;;;;;;23.62;21.65;101601.75;5082220;28;19934;-71
2022/04/11 11:08:39;;;;;;;;;;;;;;;23.00;22.24;101615.63;5085648;28;19924;-72
2022/04/11 11:11:22;;;;;;;;;;;;;;;22.92;22.93;101613.97;5083428;28;20676;-72
2022/04/11 11:13:48;;;;;;;;;;;;;;;23.27;22.88;101606.56;5085859;28;19924;-72
2022/04/11 11:16:14;;;;;;;;;;;;;;;23.94;22.85;101602.16;5085064;28;19916;-71
2022/04/11 11:18:42;;;;;;;;;;;;;;;24.47;22.30;101594.31;5084527;28;19920;-72
2022/04/11 11:21:07;;;;;;;;;;;;;;;24.34;20.34;101601.53;5081764;28;19953;-72
2022/04/11 11:23:34;;;;;;;;;;;;;;;23.46;21.43;101591.44;5084866;28;19924;-71
2022/04/11 11:26:10;;;;;;;;;;;;;;;23.54;21.31;101594.84;5084207;28;19924;-71
2022/04/11 11:28:36;;;;;;;;;;;;;;;23.14;22.52;101577.88;5085157;28;20011;-72
2022/04/11 11:31:01;;;;;;;;;;;;;;;23.00;22.59;101564.94;5083469;28;20011;-71
2022/04/11 11:33:27;;;;;;;;;;;;;;;22.81;22.30;101559.00;5084062;28;20286;-71
2022/04/11 11:35:53;;;;;;;;;;;;;;;22.80;21.70;101557.25;5084124;28;19923;-71
2022/04/11 11:38:23;;;;;;;;;;;;;;;22.30;23.18;101549.94;5083878;28;19924;-71
2022/04/11 11:40:56;;;;;;;;;;;;;;;22.77;22.27;101546.81;5086580;28;19923;-70
2022/04/11 11:43:22;;;;;;;;;;;;;;;23.19;22.08;101544.59;5086440;28;19924;-70
2022/04/11 11:45:47;;;;;;;;;;;;;;;22.70;21.99;101553.88;5089644;28;19927;-70
2022/04/11 11:48:23;;;;;;;;;;;;;;;22.41;21.88;101542.84;5069229;28;19924;-71
2022/04/11 11:50:49;;;;;;;;;;;;;;;21.58;22.30;101529.53;5084425;28;20073;-70
2022/04/11 11:53:15;;;;;;;;;;;;;;;21.48;23.09;101530.47;5084556;28;19920;-70
2022/04/11 11:55:53;;;;;;;;;;;;;;;21.38;23.77;101517.44;5084769;28;19920;-70
2022/04/11 11:58:18;;;;;;;;;;;;;;;20.95;23.20;101522.00;5083344;28;19940;-70
2022/04/11 12:00:47;;;;;;;;;;;;;;;20.96;23.66;101518.50;5084802;28;19916;-71
2022/04/11 12:06:02;;;;;;;;;;;;;;;21.75;22.28;101527.66;5076046;28;20376;-71
2022/04/11 12:08:30;;;;;;;;;;;;;;;21.84;23.87;101511.91;5084212;28;19920;-70
2022/04/11 12:10:57;;;;;;;;;;;;;;;22.75;22.71;101517.09;5086472;28;20326;-71
2022/04/11 12:13:24;;;;;;;;;;;;;;;23.00;21.74;101513.34;5087824;28;19931;-71
2022/04/11 12:15:49;;;;;;;;;;;;;;;22.54;20.71;101513.00;5083268;28;19923;-71
2022/04/11 12:18:15;;;;;;;;;;;;;;;22.24;22.04;101510.69;5088635;28;19928;-72
2022/04/11 12:20:42;;;;;;;;;;;;;;;22.80;21.93;101496.09;5083783;28;19924;-72
2022/04/11 12:23:09;;;;;;;;;;;;;;;23.01;21.24;101488.84;5083716;28;19924;-72
2022/04/11 12:25:35;;;;;;;;;;;;;;;22.74;21.55;101495.28;5078001;28;20000;-72
2022/04/11 12:28:11;;;;;;;;;;;;;;;22.26;21.77;101495.81;5087192;28;19920;-72
2022/04/11 12:30:37;;;;;;;;;;;;;;;22.06;22.92;101488.13;5099271;28;20383;-72
2022/04/11 12:33:03;;;;;;;;;;;;;;;21.69;22.74;101494.56;5085362;28;19924;-72
2022/04/11 12:35:28;;;;;;;;;;;;;;;22.07;22.64;101476.78;5063351;28;20805;-72
2022/04/11 12:37:57;;;;;;;;;;;;;;;21.90;22.31;101485.66;5084033;28;20100;-73